createdAt,value
2018-06-21T00:02:06.983Z,99.90
2018-06-21T00:04:35.451Z,99.90
2018-06-21T00:07:04.099Z,99.90
2018-06-21T00:09:32.692Z,99.90
2018-06-21T00:12:01.127Z,99.90
2018-06-21T00:14:29.715Z,99.90
2018-06-21T00:16:58.143Z,99.90
2018-06-21T00:19:26.727Z,99.90
2018-06-21T00:21:55.187Z,99.90
2018-06-21T00:24:23.746Z,99.90
2018-06-21T00:26:53.706Z,99.90
2018-06-21T00:29:22.419Z,99.90
2018-06-21T00:31:51.196Z,99.90
2018-06-21T00:34:19.759Z,99.90
2018-06-21T00:36:49.454Z,99.90
2018-06-21T00:39:18.077Z,99.90
2018-06-21T00:41:46.630Z,99.90
2018-06-21T00:44:15.404Z,99.90
2018-06-21T00:46:44.000Z,99.90
2018-06-21T00:49:12.534Z,99.90
2018-06-21T00:51:41.278Z,99.90
2018-06-21T00:54:09.799Z,99.90
2018-06-21T00:56:38.427Z,99.90
2018-06-21T00:59:06.949Z,99.90
2018-06-21T01:01:35.580Z,99.90
2018-06-21T01:04:04.202Z,99.90
2018-06-21T01:06:32.865Z,99.90
2018-06-21T01:09:01.567Z,99.90
2018-06-21T01:11:30.389Z,99.90
2018-06-21T01:13:58.946Z,99.90
2018-06-21T01:16:27.671Z,99.90
2018-06-21T01:18:56.455Z,99.90
2018-06-21T01:21:25.088Z,99.90
2018-06-21T01:23:53.746Z,99.90
2018-06-21T01:26:22.270Z,99.90
2018-06-21T01:28:50.773Z,99.90
2018-06-21T01:31:19.215Z,99.90
2018-06-21T01:33:47.662Z,99.90
2018-06-21T01:36:16.098Z,99.90
2018-06-21T01:38:44.580Z,99.90
2018-06-21T01:41:13.081Z,99.90
2018-06-21T01:43:41.551Z,99.90
2018-06-21T01:46:10.023Z,99.90
2018-06-21T01:48:38.499Z,99.90
2018-06-21T01:51:07.047Z,99.90
2018-06-21T01:53:35.553Z,99.90
2018-06-21T01:56:04.109Z,99.90
2018-06-21T01:58:32.619Z,99.90
2018-06-21T02:01:01.082Z,99.90
2018-06-21T02:03:29.628Z,99.90
2018-06-21T02:05:58.063Z,99.90
2018-06-21T02:08:26.545Z,99.90
2018-06-21T02:10:55.025Z,99.90
2018-06-21T02:13:23.461Z,99.90
2018-06-21T02:15:51.956Z,99.90
2018-06-21T02:18:20.403Z,99.90
2018-06-21T02:20:48.871Z,99.90
2018-06-21T02:23:17.764Z,99.90
2018-06-21T02:25:46.213Z,99.90
2018-06-21T02:28:14.714Z,99.90
2018-06-21T02:30:43.188Z,99.90
2018-06-21T02:33:11.711Z,99.90
2018-06-21T02:35:40.137Z,99.90
2018-06-21T02:38:08.583Z,99.90
2018-06-21T02:40:37.088Z,99.90
2018-06-21T02:43:05.969Z,99.90
2018-06-21T02:45:34.575Z,99.90
2018-06-21T02:48:03.034Z,99.90
2018-06-21T02:50:31.609Z,99.90
2018-06-21T02:53:00.071Z,99.90
2018-06-21T02:55:28.565Z,99.90
2018-06-21T02:57:56.982Z,99.90
2018-06-21T03:00:25.532Z,99.90
2018-06-21T03:02:53.989Z,99.90
2018-06-21T03:05:22.438Z,99.90
2018-06-21T03:07:50.929Z,99.90
2018-06-21T03:10:19.395Z,99.90
2018-06-21T03:12:47.861Z,99.90
2018-06-21T03:15:16.316Z,99.90
2018-06-21T03:17:44.782Z,99.90
2018-06-21T03:20:13.292Z,99.90
2018-06-21T03:22:41.783Z,99.90
2018-06-21T03:25:10.266Z,99.90
2018-06-21T03:27:38.739Z,99.90
2018-06-21T03:30:07.185Z,99.90
2018-06-21T03:32:35.654Z,99.90
2018-06-21T03:35:04.202Z,99.90
2018-06-21T03:37:32.781Z,99.90
2018-06-21T03:40:01.241Z,99.90
2018-06-21T03:42:29.690Z,99.90
2018-06-21T03:44:58.171Z,99.90
2018-06-21T03:47:26.644Z,99.90
2018-06-21T03:49:55.092Z,99.90
2018-06-21T03:52:23.545Z,99.90
2018-06-21T03:54:52.051Z,99.90
2018-06-21T03:57:20.519Z,99.90
2018-06-21T03:59:49.261Z,99.90
2018-06-21T04:02:17.720Z,99.90
2018-06-21T04:04:47.337Z,99.90
2018-06-21T04:07:16.141Z,99.90
2018-06-21T04:09:44.615Z,99.90
2018-06-21T04:12:13.520Z,99.90
2018-06-21T04:14:42.021Z,99.90
2018-06-21T04:17:10.496Z,99.90
2018-06-21T04:19:38.966Z,99.90
2018-06-21T04:22:07.650Z,99.90
2018-06-21T04:24:36.463Z,99.90
2018-06-21T04:27:04.935Z,99.90
2018-06-21T04:29:33.385Z,99.90
2018-06-21T04:32:01.863Z,99.90
2018-06-21T04:34:30.302Z,99.90
2018-06-21T04:36:58.798Z,99.90
2018-06-21T04:39:27.263Z,99.90
2018-06-21T04:41:55.756Z,99.90
2018-06-21T04:44:25.103Z,99.90
2018-06-21T04:46:53.803Z,99.90
2018-06-21T04:49:22.239Z,99.90
2018-06-21T04:51:50.776Z,99.90
2018-06-21T04:54:19.473Z,99.90
2018-06-21T04:56:47.944Z,99.90
2018-06-21T04:59:16.419Z,99.90
2018-06-21T05:01:44.860Z,99.90
2018-06-21T05:04:13.331Z,99.90
2018-06-21T05:06:41.759Z,99.90
2018-06-21T05:09:11.988Z,99.90
2018-06-21T05:11:40.470Z,99.90
2018-06-21T05:14:09.530Z,99.90
2018-06-21T05:16:37.974Z,99.90
2018-06-21T05:19:06.488Z,99.90
2018-06-21T05:21:35.104Z,99.90
2018-06-21T05:24:03.560Z,99.90
2018-06-21T05:26:32.062Z,99.90
2018-06-21T05:29:01.196Z,99.90
2018-06-21T05:33:58.245Z,99.90
2018-06-21T05:36:26.742Z,99.90
2018-06-21T05:38:55.300Z,99.90
2018-06-21T05:41:23.998Z,99.90
2018-06-21T05:43:52.520Z,99.90
2018-06-21T05:46:21.008Z,99.90
2018-06-21T05:48:49.462Z,99.90
2018-06-21T05:51:17.948Z,99.90
2018-06-21T05:53:46.435Z,99.90
2018-06-21T05:56:15.003Z,99.90
2018-06-21T05:58:43.464Z,99.90
2018-06-21T06:01:11.967Z,99.90
2018-06-21T06:03:40.461Z,99.90
2018-06-21T06:06:08.956Z,99.90
2018-06-21T06:08:37.496Z,99.90
2018-06-21T06:11:07.414Z,99.90
2018-06-21T06:13:35.924Z,99.90
2018-06-21T06:16:04.394Z,99.90
2018-06-21T06:18:32.854Z,99.90
2018-06-21T06:21:02.144Z,99.90
2018-06-21T06:23:30.960Z,99.90
2018-06-21T06:25:59.454Z,99.90
2018-06-21T06:28:27.978Z,99.90
2018-06-21T06:30:56.520Z,99.90
2018-06-21T06:33:24.995Z,99.90
2018-06-21T06:35:55.472Z,99.90
2018-06-21T06:38:24.361Z,99.90
2018-06-21T06:40:53.111Z,99.90
2018-06-21T06:43:21.688Z,99.90
2018-06-21T06:45:50.257Z,99.90
2018-06-21T06:48:18.735Z,99.90
2018-06-21T06:50:47.218Z,99.90
2018-06-21T06:53:15.803Z,99.90
2018-06-21T06:55:44.420Z,99.90
2018-06-21T06:58:12.914Z,99.90
2018-06-21T07:00:41.467Z,99.90
2018-06-21T07:03:09.949Z,99.90
2018-06-21T07:05:38.531Z,99.90
2018-06-21T07:08:07.192Z,99.90
2018-06-21T07:10:35.661Z,99.90
2018-06-21T07:13:04.158Z,99.90
2018-06-21T07:15:32.658Z,99.90
2018-06-21T07:18:01.113Z,99.90
2018-06-21T07:20:29.642Z,99.90
2018-06-21T07:22:58.099Z,99.90
2018-06-21T07:25:26.566Z,99.90
2018-06-21T07:27:55.036Z,99.90
2018-06-21T07:30:23.519Z,99.90
2018-06-21T07:32:51.994Z,99.90
2018-06-21T07:35:20.522Z,99.90
2018-06-21T07:37:48.978Z,99.90
2018-06-21T07:40:17.606Z,99.90
2018-06-21T07:42:46.081Z,99.90
2018-06-21T07:45:14.591Z,99.90
2018-06-21T07:47:43.151Z,99.90
2018-06-21T07:50:11.632Z,99.90
2018-06-21T07:52:40.110Z,99.90
2018-06-21T07:55:08.598Z,99.90
2018-06-21T07:57:37.074Z,99.90
2018-06-21T08:00:05.619Z,99.90
2018-06-21T08:02:34.080Z,99.90
2018-06-21T08:05:02.620Z,99.90
2018-06-21T08:07:31.081Z,99.90
2018-06-21T08:09:59.629Z,99.90
2018-06-21T08:12:28.112Z,99.90
2018-06-21T08:14:56.601Z,99.90
2018-06-21T08:17:25.090Z,99.90
2018-06-21T08:19:53.572Z,99.90
2018-06-21T08:22:22.050Z,99.90
2018-06-21T08:24:50.572Z,99.90
2018-06-21T08:27:19.051Z,99.90
2018-06-21T08:29:47.624Z,99.90
2018-06-21T08:32:16.119Z,99.90
2018-06-21T08:34:44.627Z,99.90
2018-06-21T08:37:13.146Z,99.90
2018-06-21T08:39:41.621Z,99.90
2018-06-21T08:42:10.154Z,99.90
2018-06-21T08:44:38.738Z,99.90
2018-06-21T08:47:07.284Z,99.90
2018-06-21T08:49:35.911Z,99.90
2018-06-21T08:52:04.429Z,99.90
2018-06-21T08:54:33.034Z,99.90
2018-06-21T08:57:01.475Z,99.90
2018-06-21T08:59:29.982Z,99.90
2018-06-21T09:01:58.628Z,99.90
2018-06-21T09:04:27.121Z,99.90
2018-06-21T09:06:55.698Z,99.90
2018-06-21T09:09:24.217Z,99.90
2018-06-21T09:11:52.718Z,99.90
2018-06-21T09:14:21.176Z,99.90
2018-06-21T09:16:49.639Z,99.90
2018-06-21T09:19:18.130Z,99.90
2018-06-21T09:21:46.612Z,99.90
2018-06-21T09:24:15.107Z,99.90
2018-06-21T09:26:43.879Z,99.90
2018-06-21T09:29:12.354Z,99.90
2018-06-21T09:31:40.918Z,99.90
2018-06-21T09:34:09.424Z,99.90
2018-06-21T09:36:41.942Z,99.90
2018-06-21T09:39:16.424Z,99.90
2018-06-21T09:41:50.494Z,99.90
2018-06-21T09:44:33.168Z,99.90
2018-06-21T09:47:07.063Z,99.90
2018-06-21T09:49:35.507Z,99.90
2018-06-21T09:52:05.259Z,99.90
2018-06-21T09:54:34.260Z,99.90
2018-06-21T09:57:02.786Z,99.90
2018-06-21T09:59:31.754Z,99.90
2018-06-21T10:02:00.264Z,99.90
2018-06-21T10:04:28.796Z,99.90
2018-06-21T10:06:57.376Z,99.90
2018-06-21T10:09:26.240Z,99.90
2018-06-21T10:11:54.739Z,99.90
2018-06-21T10:14:23.628Z,99.90
2018-06-21T10:16:52.430Z,99.90
2018-06-21T10:19:20.918Z,99.90
2018-06-21T10:21:49.558Z,99.90
2018-06-21T10:24:18.017Z,99.90
2018-06-21T10:26:46.526Z,99.90
2018-06-21T10:29:15.146Z,99.90
2018-06-21T10:31:43.637Z,99.90
2018-06-21T10:36:40.299Z,99.90
2018-06-21T10:39:10.336Z,99.90
2018-06-21T10:41:38.926Z,99.90
2018-06-21T10:44:07.478Z,99.90
2018-06-21T10:46:35.922Z,99.90
2018-06-21T10:49:04.498Z,99.90
2018-06-21T10:51:32.929Z,99.90
2018-06-21T10:54:01.425Z,99.90
2018-06-21T10:56:29.890Z,99.90
2018-06-21T10:58:58.377Z,99.90
2018-06-21T11:03:55.024Z,99.90
2018-06-21T11:06:24.116Z,99.90
2018-06-21T11:08:52.722Z,99.90
2018-06-21T11:11:21.200Z,99.90
2018-06-21T11:13:49.876Z,99.90
2018-06-21T11:16:18.358Z,99.90
2018-06-21T11:18:46.975Z,99.90
2018-06-21T11:21:15.496Z,99.90
2018-06-21T11:23:43.986Z,99.90
2018-06-21T11:26:12.590Z,99.90
2018-06-21T11:28:41.071Z,99.90
2018-06-21T11:31:09.568Z,99.90
2018-06-21T11:33:38.068Z,99.90
2018-06-21T11:36:06.591Z,99.90
2018-06-21T11:38:35.078Z,99.90
2018-06-21T11:41:03.558Z,99.90
2018-06-21T11:43:32.037Z,99.90
2018-06-21T11:46:00.585Z,99.90
2018-06-21T11:48:29.077Z,99.90
2018-06-21T11:50:57.562Z,99.90
2018-06-21T11:53:26.067Z,99.90
2018-06-21T11:55:54.577Z,99.90
2018-06-21T11:58:23.088Z,99.90
2018-06-21T12:00:51.550Z,99.90
2018-06-21T12:03:20.119Z,99.90
2018-06-21T12:05:48.555Z,99.90
2018-06-21T12:08:17.061Z,99.90
2018-06-21T12:10:45.542Z,99.90
2018-06-21T12:13:14.096Z,99.90
2018-06-21T12:15:42.590Z,99.90
2018-06-21T12:18:11.088Z,99.90
2018-06-21T12:20:39.575Z,99.90
2018-06-21T12:23:08.068Z,99.90
2018-06-21T12:25:36.516Z,99.90
2018-06-21T12:28:05.081Z,99.90
2018-06-21T12:30:33.539Z,99.90
2018-06-21T12:33:02.047Z,99.90
2018-06-21T12:35:30.517Z,99.90
2018-06-21T12:37:58.977Z,99.90
2018-06-21T12:40:27.462Z,99.90
2018-06-21T12:42:55.936Z,99.90
2018-06-21T12:45:24.399Z,99.90
2018-06-21T12:47:52.879Z,99.90
2018-06-21T12:50:21.608Z,99.90
2018-06-21T12:52:50.638Z,99.90
2018-06-21T12:55:19.155Z,99.90
2018-06-21T12:57:47.625Z,99.90
2018-06-21T13:00:16.197Z,99.90
2018-06-21T13:02:44.860Z,99.90
2018-06-21T13:05:13.329Z,99.90
2018-06-21T13:07:41.914Z,99.90
2018-06-21T13:10:21.731Z,99.90
2018-06-21T13:13:06.856Z,99.90
2018-06-21T13:15:35.325Z,99.90
2018-06-21T13:18:03.853Z,99.90
2018-06-21T13:20:32.353Z,99.90
2018-06-21T13:23:00.821Z,99.90
2018-06-21T13:25:29.377Z,99.90
2018-06-21T13:27:57.856Z,99.90
2018-06-21T13:30:26.318Z,99.90
2018-06-21T13:32:54.786Z,99.90
2018-06-21T13:35:23.262Z,99.90
2018-06-21T13:37:51.732Z,99.90
2018-06-21T13:40:20.325Z,99.90
2018-06-21T13:42:48.900Z,99.90
2018-06-21T13:45:17.431Z,99.90
2018-06-21T13:47:46.162Z,99.90
2018-06-21T13:50:14.781Z,99.90
2018-06-21T13:52:43.347Z,99.90
2018-06-21T13:57:40.115Z,99.90
2018-06-21T14:00:08.783Z,99.90
2018-06-21T14:02:37.267Z,99.90
2018-06-21T14:05:05.750Z,99.90
2018-06-21T14:07:34.292Z,99.90
2018-06-21T14:10:02.722Z,99.90
2018-06-21T14:12:31.327Z,99.90
2018-06-21T14:14:59.992Z,99.90
2018-06-21T14:17:28.501Z,99.90
2018-06-21T14:19:56.964Z,99.90
2018-06-21T14:22:25.710Z,99.90
2018-06-21T14:24:54.181Z,99.90
2018-06-21T14:27:22.688Z,99.90
2018-06-21T14:29:51.447Z,99.90
2018-06-21T14:32:19.939Z,99.90
2018-06-21T14:34:48.414Z,99.90
2018-06-21T14:37:16.915Z,99.90
2018-06-21T14:39:45.732Z,99.90
2018-06-21T14:42:14.395Z,99.90
2018-06-21T14:44:42.905Z,99.90
2018-06-21T14:49:39.971Z,99.90
2018-06-21T14:52:08.472Z,99.90
2018-06-21T14:57:05.502Z,99.90
2018-06-21T14:59:34.064Z,99.90
2018-06-21T15:04:37.673Z,99.90
2018-06-21T15:07:06.311Z,99.90
2018-06-21T15:09:34.839Z,99.90
2018-06-21T15:12:03.410Z,99.90
2018-06-21T15:14:31.976Z,99.90
2018-06-21T15:17:00.488Z,99.90
2018-06-21T15:19:29.179Z,99.90
2018-06-21T15:21:57.768Z,99.90
2018-06-21T15:24:26.961Z,99.90
2018-06-21T15:26:55.714Z,99.90
2018-06-21T15:29:24.293Z,99.90
2018-06-21T15:31:52.898Z,99.90
2018-06-21T15:34:21.571Z,99.90
2018-06-21T15:36:50.287Z,99.90
2018-06-21T15:39:23.888Z,99.90
2018-06-21T15:41:52.533Z,99.90
2018-06-21T15:44:21.049Z,99.90
2018-06-21T15:46:49.778Z,99.90
2018-06-21T15:49:18.326Z,99.90
2018-06-21T15:51:46.917Z,99.90
2018-06-21T15:54:15.485Z,99.90
2018-06-21T15:56:44.022Z,99.90
2018-06-21T15:59:12.709Z,99.90
2018-06-21T16:01:41.183Z,99.90
2018-06-21T16:04:09.997Z,99.90
2018-06-21T16:06:38.736Z,99.90
2018-06-21T16:09:08.222Z,99.90
2018-06-21T16:11:38.111Z,99.90
2018-06-21T16:16:34.914Z,99.90
2018-06-21T16:19:03.537Z,99.90
2018-06-21T16:21:32.431Z,99.90
2018-06-21T16:24:01.067Z,99.90
2018-06-21T16:26:29.762Z,99.90
2018-06-21T16:28:58.259Z,99.90
2018-06-21T16:31:26.902Z,99.90
2018-06-21T16:33:55.624Z,99.90
2018-06-21T16:36:24.478Z,99.90
2018-06-21T16:41:21.138Z,99.90
2018-06-21T16:43:49.605Z,99.90
2018-06-21T16:46:18.284Z,99.90
2018-06-21T16:48:46.935Z,99.90
2018-06-21T16:51:16.722Z,99.90
2018-06-21T16:53:45.275Z,99.90
2018-06-21T16:56:13.911Z,99.90
2018-06-21T16:58:42.657Z,99.90
2018-06-21T17:01:11.164Z,99.90
2018-06-21T17:03:39.809Z,99.90
2018-06-21T17:06:08.529Z,99.90
2018-06-21T17:11:05.632Z,99.90
2018-06-21T17:13:34.261Z,99.90
2018-06-21T17:16:02.801Z,99.90
2018-06-21T17:18:31.299Z,99.90
2018-06-21T17:20:59.975Z,99.90
2018-06-21T17:23:28.467Z,99.90
2018-06-21T17:25:57.077Z,99.90
2018-06-21T17:28:26.268Z,99.90
2018-06-21T17:30:54.773Z,99.90
2018-06-21T17:33:23.258Z,99.90
2018-06-21T17:35:52.058Z,99.90
2018-06-21T17:38:20.574Z,99.90
2018-06-21T17:40:49.469Z,99.90
2018-06-21T17:43:18.129Z,99.90
2018-06-21T17:45:47.208Z,99.90
2018-06-21T17:48:15.898Z,99.90
2018-06-21T17:53:13.714Z,99.90
2018-06-21T17:55:42.603Z,99.90
2018-06-21T17:58:11.325Z,99.90
2018-06-21T18:00:39.937Z,99.90
2018-06-21T18:03:08.631Z,99.90
2018-06-21T18:08:05.626Z,99.90
2018-06-21T18:10:34.145Z,99.90
2018-06-21T18:13:03.251Z,99.90
2018-06-21T18:15:32.194Z,99.90
2018-06-21T18:18:00.895Z,99.90
2018-06-21T18:20:29.967Z,99.90
2018-06-21T18:22:58.693Z,99.90
2018-06-21T18:25:27.340Z,99.90
2018-06-21T18:27:56.763Z,99.90
2018-06-21T18:30:25.325Z,99.90
2018-06-21T18:32:54.272Z,99.90
2018-06-21T18:35:22.847Z,99.90
2018-06-21T18:37:51.379Z,99.90
2018-06-21T18:42:48.541Z,99.90
2018-06-21T18:45:17.137Z,99.90
2018-06-21T18:47:45.697Z,99.90
2018-06-21T18:52:42.587Z,99.90
2018-06-21T18:57:43.020Z,99.90
2018-06-21T19:00:11.713Z,99.90
2018-06-21T19:02:40.607Z,99.90
2018-06-21T19:05:09.335Z,99.90
2018-06-21T19:07:43.954Z,99.90
2018-06-21T19:10:18.016Z,99.90
2018-06-21T19:12:46.874Z,99.90
2018-06-21T19:15:15.437Z,99.90
2018-06-21T19:17:44.079Z,99.90
2018-06-21T19:20:12.880Z,99.90
2018-06-21T19:22:41.698Z,99.90
2018-06-21T19:25:10.546Z,99.90
2018-06-21T19:27:39.335Z,99.90
2018-06-21T19:30:08.147Z,99.90
2018-06-21T19:32:36.841Z,99.90
2018-06-21T19:40:02.128Z,99.90
2018-06-21T19:42:31.886Z,99.90
2018-06-21T19:45:00.623Z,99.90
2018-06-21T19:47:29.326Z,99.90
2018-06-21T19:49:58.323Z,99.90
2018-06-21T19:52:26.994Z,99.90
2018-06-21T19:54:55.862Z,99.90
2018-06-21T19:57:24.479Z,99.90
2018-06-21T19:59:53.086Z,99.90
2018-06-21T20:02:21.698Z,99.90
2018-06-21T20:04:50.243Z,99.90
2018-06-21T20:07:18.835Z,99.90
2018-06-21T20:09:47.366Z,99.90
2018-06-21T20:12:15.955Z,99.90
2018-06-21T20:14:44.613Z,99.90
2018-06-21T20:17:13.688Z,99.90
2018-06-21T20:19:47.689Z,99.90
2018-06-21T20:22:16.431Z,99.90
2018-06-21T20:24:44.991Z,99.90
2018-06-21T20:27:13.559Z,99.90
2018-06-21T20:29:42.081Z,99.90
2018-06-21T20:32:10.621Z,99.90
2018-06-21T20:34:39.092Z,99.90
2018-06-21T20:37:11.784Z,99.90
2018-06-21T20:39:40.379Z,99.90
2018-06-21T20:42:08.902Z,99.90
2018-06-21T20:44:37.502Z,99.90
2018-06-21T20:47:06.336Z,99.90
2018-06-21T20:49:34.832Z,99.90
2018-06-21T20:52:03.409Z,99.90
2018-06-21T20:54:32.202Z,99.90
2018-06-21T20:57:00.790Z,99.90
2018-06-21T20:59:29.574Z,99.90
2018-06-21T21:01:58.185Z,99.90
2018-06-21T21:04:29.719Z,99.90
2018-06-21T21:06:58.673Z,99.40
2018-06-21T21:09:27.346Z,98.40
2018-06-21T21:11:56.105Z,98.30
2018-06-21T21:14:24.638Z,98.10
2018-06-21T21:16:53.312Z,98.10
2018-06-21T21:19:21.758Z,97.40
2018-06-21T21:21:50.220Z,96.20
2018-06-21T21:26:46.811Z,95.30
2018-06-21T21:29:15.296Z,94.80
2018-06-21T21:31:43.796Z,94.80
2018-06-21T21:34:12.257Z,94.00
2018-06-21T21:36:40.735Z,94.00
2018-06-21T21:39:09.980Z,92.70
2018-06-21T21:41:38.764Z,92.20
2018-06-21T21:44:07.231Z,92.10
2018-06-21T21:46:36.156Z,91.50
2018-06-21T21:49:04.672Z,90.70
2018-06-21T21:51:33.148Z,91.70
2018-06-21T21:54:01.652Z,91.40
2018-06-21T21:56:30.094Z,90.20
2018-06-21T21:58:58.565Z,89.80
2018-06-21T22:01:27.072Z,88.60
2018-06-21T22:03:55.648Z,88.00
2018-06-21T22:06:24.085Z,84.50
2018-06-21T22:08:52.509Z,84.00
2018-06-21T22:11:20.994Z,86.00
2018-06-21T22:13:53.643Z,84.90
2018-06-21T22:16:22.172Z,82.60
2018-06-21T22:18:50.654Z,84.30
2018-06-21T22:21:19.237Z,83.50
2018-06-21T22:23:47.670Z,81.00
2018-06-21T22:26:16.148Z,81.30
2018-06-21T22:28:44.601Z,80.90
2018-06-21T22:31:13.075Z,80.70
2018-06-21T22:33:41.526Z,79.60
2018-06-21T22:36:09.984Z,78.80
2018-06-21T22:38:38.599Z,76.70
2018-06-21T22:41:07.439Z,81.00
2018-06-21T22:43:36.254Z,76.50
2018-06-21T22:46:05.020Z,75.60
2018-06-21T22:48:33.517Z,75.70
2018-06-21T22:51:02.184Z,74.10
2018-06-21T22:53:30.651Z,73.40
2018-06-21T22:55:59.174Z,74.10
2018-06-21T22:58:27.634Z,74.50
2018-06-21T23:00:56.109Z,72.90
2018-06-21T23:03:24.537Z,71.30
2018-06-21T23:05:53.007Z,71.70
2018-06-21T23:08:21.505Z,70.20
2018-06-21T23:10:49.961Z,69.80
2018-06-21T23:13:18.568Z,69.20
2018-06-21T23:15:47.116Z,89.20
2018-06-21T23:19:27.370Z,70.90
2018-06-21T23:21:55.913Z,70.60
2018-06-21T23:24:25.260Z,70.20
2018-06-21T23:26:54.285Z,67.70
2018-06-21T23:29:22.893Z,68.40
2018-06-21T23:31:51.775Z,67.50
2018-06-21T23:36:49.851Z,65.60
2018-06-21T23:39:18.318Z,67.20
2018-06-21T23:41:46.772Z,67.60
2018-06-21T23:44:15.491Z,69.00
2018-06-21T23:46:44.408Z,69.10
2018-06-21T23:49:13.585Z,68.50
2018-06-21T23:51:42.039Z,66.70
2018-06-21T23:54:12.683Z,90.70
2018-06-21T23:56:42.248Z,99.90
2018-06-21T23:59:10.694Z,99.90
